createdAt,value
2018-08-09T00:00:14.017Z,88.20
2018-08-09T00:01:18.031Z,88.20
2018-08-09T00:02:22.106Z,88.20
2018-08-09T00:03:26.119Z,88.90
2018-08-09T00:04:30.253Z,88.00
2018-08-09T00:05:34.361Z,87.90
2018-08-09T00:06:38.406Z,88.10
2018-08-09T00:07:42.430Z,88.30
2018-08-09T00:08:46.669Z,88.50
2018-08-09T00:09:50.851Z,88.70
2018-08-09T00:10:54.892Z,88.80
2018-08-09T00:11:58.890Z,89.10
2018-08-09T00:13:02.920Z,89.90
2018-08-09T00:14:07.029Z,89.60
2018-08-09T00:15:11.009Z,89.90
2018-08-09T00:16:14.968Z,90.00
2018-08-09T00:17:18.982Z,90.00
2018-08-09T00:18:22.988Z,90.20
2018-08-09T00:19:27.009Z,90.50
2018-08-09T00:20:31.024Z,90.30
2018-08-09T00:21:35.501Z,90.50
2018-08-09T00:22:39.495Z,90.60
2018-08-09T00:23:43.545Z,90.70
2018-08-09T00:24:47.578Z,90.60
2018-08-09T00:25:51.769Z,90.80
2018-08-09T00:26:55.777Z,90.90
2018-08-09T00:27:59.776Z,90.90
2018-08-09T00:29:03.769Z,90.90
2018-08-09T00:30:08.079Z,91.30
2018-08-09T00:31:12.073Z,91.50
2018-08-09T00:32:16.092Z,91.50
2018-08-09T00:33:20.110Z,91.40
2018-08-09T00:34:24.101Z,91.40
2018-08-09T00:35:28.121Z,91.40
2018-08-09T00:36:32.106Z,91.20
2018-08-09T00:37:36.165Z,91.20
2018-08-09T00:38:40.249Z,91.40
2018-08-09T00:39:44.271Z,91.40
2018-08-09T00:40:48.277Z,91.30
2018-08-09T00:41:52.235Z,91.20
2018-08-09T00:42:56.222Z,90.90
2018-08-09T00:44:00.217Z,91.00
2018-08-09T00:45:05.281Z,90.90
2018-08-09T00:46:09.418Z,90.90
2018-08-09T00:47:13.410Z,91.00
2018-08-09T00:48:17.414Z,91.10
2018-08-09T00:49:21.389Z,91.20
2018-08-09T00:50:25.383Z,91.30
2018-08-09T00:51:29.388Z,91.50
2018-08-09T00:52:33.487Z,91.60
2018-08-09T00:53:37.482Z,91.60
2018-08-09T00:54:41.473Z,91.80
2018-08-09T00:55:45.493Z,91.90
2018-08-09T00:56:49.492Z,91.80
2018-08-09T00:57:53.493Z,91.80
2018-08-09T00:58:57.469Z,91.80
2018-08-09T01:00:01.482Z,91.70
2018-08-09T01:01:05.471Z,91.60
2018-08-09T01:02:09.446Z,91.60
2018-08-09T01:03:13.420Z,91.50
2018-08-09T01:04:17.445Z,91.50
2018-08-09T01:05:21.533Z,91.40
2018-08-09T01:06:25.541Z,91.30
2018-08-09T01:07:29.523Z,91.30
2018-08-09T01:08:33.541Z,91.30
2018-08-09T01:09:37.543Z,91.30
2018-08-09T01:10:41.537Z,91.40
2018-08-09T01:11:45.652Z,91.30
2018-08-09T01:12:49.666Z,91.30
2018-08-09T01:13:53.685Z,91.70
2018-08-09T01:14:57.744Z,91.60
2018-08-09T01:16:01.740Z,91.80
2018-08-09T01:17:05.749Z,91.90
2018-08-09T01:18:10.540Z,91.90
2018-08-09T01:19:14.543Z,91.90
2018-08-09T01:20:18.552Z,91.80
2018-08-09T01:21:22.549Z,91.80
2018-08-09T01:22:26.554Z,91.70
2018-08-09T01:23:30.542Z,91.90
2018-08-09T01:24:34.676Z,92.00
2018-08-09T01:25:38.771Z,92.00
2018-08-09T01:26:42.793Z,92.20
2018-08-09T01:27:46.816Z,91.90
2018-08-09T01:28:50.806Z,91.90
2018-08-09T01:29:54.791Z,92.00
2018-08-09T01:30:58.779Z,92.10
2018-08-09T01:32:02.839Z,92.10
2018-08-09T01:33:07.087Z,92.20
2018-08-09T01:34:11.412Z,92.20
2018-08-09T01:35:15.537Z,92.10
2018-08-09T01:36:19.615Z,92.00
2018-08-09T01:37:23.615Z,91.90
2018-08-09T01:38:27.664Z,91.80
2018-08-09T01:39:31.682Z,91.70
2018-08-09T01:40:35.687Z,91.70
2018-08-09T01:41:44.581Z,91.50
2018-08-09T01:43:00.271Z,91.40
2018-08-09T01:44:05.478Z,91.60
2018-08-09T01:45:09.465Z,91.80
2018-08-09T01:46:13.486Z,92.10
2018-08-09T01:47:17.461Z,92.20
2018-08-09T01:48:21.485Z,92.30
2018-08-09T01:49:25.507Z,92.30
2018-08-09T01:50:29.552Z,92.50
2018-08-09T01:51:33.541Z,92.60
2018-08-09T01:52:37.544Z,92.60
2018-08-09T01:53:41.551Z,92.60
2018-08-09T01:54:45.533Z,92.70
2018-08-09T01:55:49.527Z,92.80
2018-08-09T01:56:53.551Z,92.80
2018-08-09T01:57:57.631Z,92.70
2018-08-09T01:59:01.639Z,92.80
2018-08-09T02:00:06.234Z,92.90
2018-08-09T02:01:10.510Z,93.00
2018-08-09T02:02:14.517Z,93.20
2018-08-09T02:03:18.586Z,93.10
2018-08-09T02:04:22.629Z,93.00
2018-08-09T02:05:26.598Z,93.00
2018-08-09T02:06:30.660Z,93.40
2018-08-09T02:07:34.711Z,93.30
2018-08-09T02:08:38.735Z,93.30
2018-08-09T02:09:42.785Z,93.40
2018-08-09T02:10:46.768Z,93.50
2018-08-09T02:11:50.789Z,93.50
2018-08-09T02:12:54.799Z,93.60
2018-08-09T02:13:59.006Z,93.60
2018-08-09T02:15:03.031Z,93.70
2018-08-09T02:16:07.280Z,93.70
2018-08-09T02:17:11.284Z,93.70
2018-08-09T02:18:15.273Z,93.60
2018-08-09T02:19:19.297Z,93.70
2018-08-09T02:20:23.317Z,93.80
2018-08-09T02:21:27.346Z,94.00
2018-08-09T02:22:31.353Z,94.10
2018-08-09T02:23:35.335Z,94.20
2018-08-09T02:24:39.308Z,94.40
2018-08-09T02:25:43.289Z,94.40
2018-08-09T02:26:47.311Z,94.60
2018-08-09T02:27:51.330Z,94.80
2018-08-09T02:28:55.337Z,95.00
2018-08-09T02:29:59.348Z,95.10
2018-08-09T02:31:03.326Z,95.20
2018-08-09T02:32:07.296Z,95.20
2018-08-09T02:33:11.335Z,95.30
2018-08-09T02:34:15.510Z,95.20
2018-08-09T02:35:19.495Z,95.20
2018-08-09T02:36:23.530Z,95.30
2018-08-09T02:37:27.499Z,95.20
2018-08-09T02:38:31.529Z,95.10
2018-08-09T02:39:35.560Z,95.10
2018-08-09T02:40:39.574Z,94.90
2018-08-09T02:41:43.548Z,94.80
2018-08-09T02:42:47.564Z,94.60
2018-08-09T02:43:51.587Z,94.50
2018-08-09T02:44:55.583Z,94.40
2018-08-09T02:45:59.611Z,94.40
2018-08-09T02:47:03.811Z,94.40
2018-08-09T02:48:07.878Z,94.30
2018-08-09T02:49:11.913Z,94.40
2018-08-09T02:50:15.890Z,94.40
2018-08-09T02:51:19.897Z,94.40
2018-08-09T02:52:24.032Z,94.40
2018-08-09T02:53:28.014Z,94.50
2018-08-09T02:54:32.083Z,94.80
2018-08-09T02:55:36.137Z,94.50
2018-08-09T02:56:40.147Z,94.60
2018-08-09T02:57:44.166Z,94.60
2018-08-09T02:58:48.190Z,94.50
2018-08-09T02:59:52.205Z,94.40
2018-08-09T03:00:56.289Z,94.50
2018-08-09T03:02:00.317Z,94.80
2018-08-09T03:03:04.525Z,95.00
2018-08-09T03:04:08.721Z,95.40
2018-08-09T03:05:12.715Z,95.70
2018-08-09T03:06:16.832Z,95.80
2018-08-09T03:07:21.462Z,95.80
2018-08-09T03:08:25.558Z,95.60
2018-08-09T03:09:29.561Z,95.40
2018-08-09T03:10:33.556Z,95.20
2018-08-09T03:11:37.577Z,95.00
2018-08-09T03:12:41.666Z,95.10
2018-08-09T03:13:45.663Z,95.00
2018-08-09T03:14:49.677Z,94.90
2018-08-09T03:15:53.741Z,94.70
2018-08-09T03:16:57.752Z,94.50
2018-08-09T03:18:01.874Z,94.40
2018-08-09T03:19:05.945Z,94.50
2018-08-09T03:20:09.978Z,94.10
2018-08-09T03:21:13.974Z,94.10
2018-08-09T03:22:17.986Z,94.10
2018-08-09T03:23:22.081Z,94.10
2018-08-09T03:24:26.131Z,94.20
2018-08-09T03:25:30.113Z,94.40
2018-08-09T03:26:34.121Z,94.50
2018-08-09T03:27:38.152Z,94.70
2018-08-09T03:28:42.153Z,94.80
2018-08-09T03:29:46.193Z,94.90
2018-08-09T03:30:50.221Z,95.00
2018-08-09T03:31:54.494Z,95.00
2018-08-09T03:32:58.507Z,95.00
2018-08-09T03:34:02.590Z,95.00
2018-08-09T03:35:06.651Z,95.20
2018-08-09T03:36:10.622Z,95.00
2018-08-09T03:37:14.646Z,94.90
2018-08-09T03:38:18.657Z,94.80
2018-08-09T03:39:22.699Z,94.80
2018-08-09T03:40:26.734Z,94.50
2018-08-09T03:41:30.836Z,94.40
2018-08-09T03:42:34.955Z,94.40
2018-08-09T03:43:38.932Z,94.00
2018-08-09T03:44:42.945Z,93.90
2018-08-09T03:45:46.959Z,93.80
2018-08-09T03:46:50.981Z,93.70
2018-08-09T03:47:55.152Z,93.70
2018-08-09T03:48:59.177Z,93.70
2018-08-09T03:50:03.195Z,93.50
2018-08-09T03:51:07.296Z,93.80
2018-08-09T03:52:11.388Z,93.80
2018-08-09T03:53:15.407Z,94.00
2018-08-09T03:54:19.437Z,94.00
2018-08-09T03:55:23.488Z,94.10
2018-08-09T03:56:28.124Z,94.10
2018-08-09T03:57:32.134Z,94.00
2018-08-09T03:58:36.151Z,94.00
2018-08-09T03:59:40.283Z,94.00
2018-08-09T04:00:44.324Z,94.10
2018-08-09T04:01:48.328Z,94.10
2018-08-09T04:02:52.364Z,94.00
2018-08-09T04:03:56.419Z,94.00
2018-08-09T04:05:00.618Z,94.00
2018-08-09T04:06:04.885Z,94.10
2018-08-09T04:07:08.930Z,94.00
2018-08-09T04:08:12.904Z,94.00
2018-08-09T04:09:16.928Z,93.90
2018-08-09T04:10:20.913Z,93.90
2018-08-09T04:11:24.920Z,94.10
2018-08-09T04:12:28.911Z,93.90
2018-08-09T04:13:32.994Z,94.10
2018-08-09T04:14:37.008Z,94.10
2018-08-09T04:15:41.033Z,94.20
2018-08-09T04:16:45.050Z,94.20
2018-08-09T04:17:49.136Z,94.10
2018-08-09T04:18:53.916Z,94.00
2018-08-09T04:19:57.953Z,93.90
2018-08-09T04:21:01.981Z,93.90
2018-08-09T04:22:05.990Z,93.90
2018-08-09T04:23:10.072Z,94.00
2018-08-09T04:24:14.196Z,94.40
2018-08-09T04:25:18.440Z,94.50
2018-08-09T04:26:22.658Z,94.50
2018-08-09T04:27:26.643Z,94.40
2018-08-09T04:28:30.656Z,94.30
2018-08-09T04:29:34.720Z,94.30
2018-08-09T04:30:38.771Z,94.30
2018-08-09T04:31:42.850Z,94.50
2018-08-09T04:32:46.920Z,94.40
2018-08-09T04:33:50.923Z,94.40
2018-08-09T04:34:54.975Z,94.20
2018-08-09T04:35:59.064Z,94.10
2018-08-09T04:37:03.090Z,94.10
2018-08-09T04:38:07.334Z,94.20
2018-08-09T04:39:11.604Z,94.20
2018-08-09T04:40:15.598Z,94.30
2018-08-09T04:41:19.641Z,94.40
2018-08-09T04:42:23.635Z,94.40
2018-08-09T04:43:27.674Z,94.50
2018-08-09T04:44:31.755Z,94.60
2018-08-09T04:45:35.763Z,94.80
2018-08-09T04:46:39.755Z,94.70
2018-08-09T04:47:43.770Z,94.80
2018-08-09T04:48:47.839Z,94.90
2018-08-09T04:49:51.869Z,95.00
2018-08-09T04:50:55.838Z,95.10
2018-08-09T04:51:59.889Z,95.20
2018-08-09T04:53:03.902Z,95.30
2018-08-09T04:54:07.931Z,95.20
2018-08-09T04:55:11.957Z,95.40
2018-08-09T04:56:15.953Z,95.40
2018-08-09T04:57:19.924Z,95.50
2018-08-09T04:58:24.622Z,95.60
2018-08-09T04:59:29.340Z,95.70
2018-08-09T05:00:33.359Z,95.80
2018-08-09T05:01:37.345Z,95.90
2018-08-09T05:02:41.777Z,96.00
2018-08-09T05:03:46.673Z,96.00
2018-08-09T05:04:50.678Z,95.90
2018-08-09T05:05:54.797Z,95.90
2018-08-09T05:06:58.781Z,96.00
2018-08-09T05:08:02.785Z,96.10
2018-08-09T05:09:08.572Z,96.20
2018-08-09T05:10:12.850Z,96.30
2018-08-09T05:11:17.901Z,96.40
2018-08-09T05:12:22.001Z,96.40
2018-08-09T05:13:25.999Z,96.40
2018-08-09T05:14:30.133Z,96.30
2018-08-09T05:15:34.162Z,96.30
2018-08-09T05:16:38.448Z,96.40
2018-08-09T05:17:42.462Z,96.20
2018-08-09T05:18:46.461Z,96.20
2018-08-09T05:19:50.511Z,96.30
2018-08-09T05:20:54.578Z,96.30
2018-08-09T05:21:58.666Z,96.20
2018-08-09T05:23:02.701Z,96.20
2018-08-09T05:24:06.755Z,96.30
2018-08-09T05:25:10.822Z,96.10
2018-08-09T05:26:14.876Z,96.00
2018-08-09T05:27:18.922Z,96.00
2018-08-09T05:28:22.931Z,95.90
2018-08-09T05:29:26.961Z,95.70
2018-08-09T05:30:31.000Z,95.70
2018-08-09T05:31:35.017Z,95.70
2018-08-09T05:32:39.018Z,95.70
2018-08-09T05:33:43.033Z,95.70
2018-08-09T05:34:47.567Z,95.60
2018-08-09T05:35:51.647Z,95.50
2018-08-09T05:36:55.675Z,95.40
2018-08-09T05:37:59.709Z,95.40
2018-08-09T05:39:05.808Z,95.40
2018-08-09T05:40:09.793Z,95.40
2018-08-09T05:41:13.919Z,95.30
2018-08-09T05:42:17.898Z,95.30
2018-08-09T05:43:21.875Z,95.20
2018-08-09T05:44:26.762Z,95.20
2018-08-09T05:45:30.837Z,95.20
2018-08-09T05:46:34.847Z,95.10
2018-08-09T05:47:38.883Z,95.10
2018-08-09T05:48:42.906Z,95.10
2018-08-09T05:49:46.969Z,94.90
2018-08-09T05:50:51.083Z,94.90
2018-08-09T05:51:55.111Z,94.90
2018-08-09T05:52:59.309Z,94.90
2018-08-09T05:54:03.536Z,95.00
2018-08-09T05:55:07.907Z,94.90
2018-08-09T05:56:11.903Z,94.90
2018-08-09T05:57:15.934Z,94.90
2018-08-09T05:58:19.944Z,94.90
2018-08-09T05:59:24.198Z,94.90
2018-08-09T06:00:28.694Z,95.00
2018-08-09T06:01:32.800Z,94.90
2018-08-09T06:02:37.120Z,95.00
2018-08-09T06:03:41.249Z,94.90
2018-08-09T06:04:45.297Z,94.90
2018-08-09T06:05:49.456Z,94.90
2018-08-09T06:06:53.481Z,94.90
2018-08-09T06:07:57.499Z,94.90
2018-08-09T06:09:01.735Z,94.90
2018-08-09T06:10:07.004Z,94.90
2018-08-09T06:11:11.219Z,94.90
2018-08-09T06:12:15.317Z,94.90
2018-08-09T06:13:19.661Z,94.90
2018-08-09T06:14:23.636Z,94.90
2018-08-09T06:15:27.759Z,94.80
2018-08-09T06:16:31.761Z,94.70
2018-08-09T06:17:35.961Z,94.70
2018-08-09T06:18:39.995Z,94.70
2018-08-09T06:19:44.206Z,94.60
2018-08-09T06:20:48.213Z,94.50
2018-08-09T06:21:52.559Z,94.60
2018-08-09T06:22:57.455Z,94.70
2018-08-09T06:24:02.585Z,95.00
2018-08-09T06:25:07.785Z,95.30
2018-08-09T06:26:11.921Z,95.40
2018-08-09T06:27:16.251Z,95.40
2018-08-09T06:28:20.320Z,95.20
2018-08-09T06:29:24.427Z,95.20
2018-08-09T06:30:28.664Z,95.10
2018-08-09T06:31:32.722Z,95.00
2018-08-09T06:32:37.179Z,94.90
2018-08-09T06:33:41.209Z,94.90
2018-08-09T06:34:45.250Z,94.80
2018-08-09T06:35:49.270Z,94.80
2018-08-09T06:36:53.320Z,94.70
2018-08-09T06:37:57.297Z,94.60
2018-08-09T06:39:01.371Z,94.90
2018-08-09T06:40:09.425Z,95.10
2018-08-09T06:41:13.436Z,95.30
2018-08-09T06:42:17.432Z,95.30
2018-08-09T06:43:21.428Z,95.20
2018-08-09T06:44:25.389Z,95.20
2018-08-09T06:45:29.531Z,95.10
2018-08-09T06:46:33.638Z,95.10
2018-08-09T06:47:37.658Z,95.00
2018-08-09T06:48:41.632Z,94.90
2018-08-09T06:49:45.662Z,95.00
2018-08-09T06:50:49.650Z,95.00
2018-08-09T06:51:53.718Z,94.70
2018-08-09T06:52:58.004Z,94.70
2018-08-09T06:54:02.081Z,94.50
2018-08-09T06:55:06.273Z,94.80
2018-08-09T06:56:10.356Z,95.10
2018-08-09T06:57:14.525Z,94.80
2018-08-09T06:58:18.774Z,94.70
2018-08-09T06:59:22.853Z,94.90
2018-08-09T07:00:26.939Z,94.90
2018-08-09T07:01:31.048Z,94.60
2018-08-09T07:02:35.030Z,94.60
2018-08-09T07:03:39.269Z,94.50
2018-08-09T07:04:43.498Z,94.50
2018-08-09T07:05:47.560Z,94.50
2018-08-09T07:06:51.560Z,94.50
2018-08-09T07:07:55.579Z,94.40
2018-08-09T07:08:59.773Z,94.30
2018-08-09T07:10:03.963Z,94.40
2018-08-09T07:11:07.935Z,94.20
2018-08-09T07:12:12.168Z,93.70
2018-08-09T07:13:16.258Z,93.50
2018-08-09T07:14:20.273Z,93.50
2018-08-09T07:15:24.279Z,93.60
2018-08-09T07:16:28.860Z,93.60
2018-08-09T07:17:33.038Z,93.60
2018-08-09T07:18:37.390Z,93.60
2018-08-09T07:19:42.225Z,93.40
2018-08-09T07:20:46.311Z,93.40
2018-08-09T07:21:50.365Z,93.30
2018-08-09T07:22:54.363Z,93.20
2018-08-09T07:23:58.692Z,93.20
2018-08-09T07:25:02.752Z,93.00
2018-08-09T07:26:07.864Z,92.80
2018-08-09T07:27:11.851Z,92.70
2018-08-09T07:28:15.952Z,92.60
2018-08-09T07:29:19.977Z,92.50
2018-08-09T07:30:24.000Z,92.50
2018-08-09T07:31:28.528Z,92.40
2018-08-09T07:32:32.585Z,92.50
2018-08-09T07:33:36.594Z,92.40
2018-08-09T07:34:40.628Z,92.40
2018-08-09T07:35:44.641Z,92.30
2018-08-09T07:36:48.685Z,92.20
2018-08-09T07:37:52.658Z,92.20
2018-08-09T07:38:56.678Z,92.30
2018-08-09T07:40:00.788Z,92.00
2018-08-09T07:41:04.755Z,92.10
2018-08-09T07:42:08.785Z,92.20
2018-08-09T07:43:12.754Z,92.10
2018-08-09T07:44:16.858Z,91.90
2018-08-09T07:45:20.888Z,91.90
2018-08-09T07:46:24.907Z,91.80
2018-08-09T07:47:28.899Z,91.80
2018-08-09T07:48:32.953Z,91.60
2018-08-09T07:49:39.199Z,91.40
2018-08-09T07:50:43.253Z,91.40
2018-08-09T07:51:47.276Z,91.40
2018-08-09T07:52:53.351Z,91.50
2018-08-09T07:53:57.403Z,91.40
2018-08-09T07:55:01.423Z,91.40
2018-08-09T07:56:05.455Z,91.00
2018-08-09T07:57:09.686Z,90.90
2018-08-09T07:58:13.637Z,90.70
2018-08-09T07:59:17.685Z,91.00
2018-08-09T08:00:21.767Z,90.80
2018-08-09T08:01:25.832Z,90.90
2018-08-09T08:02:29.878Z,91.00
2018-08-09T08:03:33.891Z,90.70
2018-08-09T08:04:37.903Z,90.50
2018-08-09T08:05:42.115Z,90.50
2018-08-09T08:06:46.261Z,90.30
2018-08-09T08:07:50.328Z,90.30
2018-08-09T08:08:54.365Z,90.30
2018-08-09T08:09:58.473Z,90.30
2018-08-09T08:11:04.081Z,90.10
2018-08-09T08:12:08.688Z,90.00
2018-08-09T08:13:12.790Z,89.70
2018-08-09T08:14:16.821Z,89.30
2018-08-09T08:15:21.009Z,89.20
2018-08-09T08:16:25.085Z,89.40
2018-08-09T08:17:29.084Z,89.40
2018-08-09T08:18:33.120Z,89.30
2018-08-09T08:19:37.154Z,89.40
2018-08-09T08:20:41.229Z,89.30
2018-08-09T08:21:45.258Z,89.10
2018-08-09T08:22:49.241Z,88.90
2018-08-09T08:23:54.747Z,88.70
2018-08-09T08:24:59.716Z,88.70
2018-08-09T08:26:03.725Z,88.60
2018-08-09T08:27:07.767Z,87.30
2018-08-09T08:28:11.750Z,87.30
2018-08-09T08:29:15.748Z,87.90
2018-08-09T08:30:19.836Z,87.70
2018-08-09T08:31:23.890Z,88.20
2018-08-09T08:32:27.937Z,88.70
2018-08-09T08:33:32.007Z,87.50
2018-08-09T08:34:35.979Z,87.30
2018-08-09T08:35:40.056Z,86.70
2018-08-09T08:36:44.054Z,86.30
2018-08-09T08:37:48.295Z,86.70
2018-08-09T08:38:52.341Z,86.60
2018-08-09T08:39:56.445Z,86.40
2018-08-09T08:41:00.445Z,86.30
2018-08-09T08:42:04.484Z,86.20
2018-08-09T08:43:08.477Z,86.10
2018-08-09T08:44:12.605Z,84.40
2018-08-09T08:45:16.622Z,85.20
2018-08-09T08:46:20.644Z,84.70
2018-08-09T08:47:24.720Z,84.20
2018-08-09T08:48:28.922Z,83.30
2018-08-09T08:49:33.307Z,83.20
2018-08-09T08:50:37.293Z,83.50
2018-08-09T08:51:41.270Z,84.00
2018-08-09T08:52:45.266Z,83.60
2018-08-09T08:53:49.270Z,82.00
2018-08-09T08:54:53.298Z,82.10
2018-08-09T08:55:57.311Z,80.80
2018-08-09T08:57:01.344Z,81.10
2018-08-09T08:58:05.802Z,80.40
2018-08-09T08:59:09.851Z,80.00
2018-08-09T09:00:14.138Z,80.30
2018-08-09T09:01:18.347Z,80.30
2018-08-09T09:02:22.393Z,80.10
2018-08-09T09:03:26.416Z,80.20
2018-08-09T09:04:30.503Z,80.30
2018-08-09T09:05:34.508Z,80.70
2018-08-09T09:06:38.544Z,79.90
2018-08-09T09:07:42.585Z,79.70
2018-08-09T09:08:46.596Z,79.60
2018-08-09T09:09:50.653Z,79.70
2018-08-09T09:10:57.930Z,79.20
2018-08-09T09:12:02.004Z,79.40
2018-08-09T09:13:06.250Z,79.00
2018-08-09T09:14:10.796Z,78.50
2018-08-09T09:15:15.784Z,78.40
2018-08-09T09:16:19.789Z,77.90
2018-08-09T09:17:23.776Z,77.90
2018-08-09T09:18:27.814Z,78.00
2018-08-09T09:19:31.838Z,77.50
2018-08-09T09:20:35.844Z,77.30
2018-08-09T09:21:39.869Z,77.10
2018-08-09T09:22:44.976Z,77.30
2018-08-09T09:23:49.085Z,76.90
2018-08-09T09:24:53.074Z,76.30
2018-08-09T09:25:57.097Z,76.80
2018-08-09T09:27:01.205Z,76.60
2018-08-09T09:28:05.337Z,76.60
2018-08-09T09:29:09.335Z,76.50
2018-08-09T09:30:14.636Z,76.40
2018-08-09T09:31:18.686Z,75.90
2018-08-09T09:32:22.668Z,75.00
2018-08-09T09:33:26.702Z,74.80
2018-08-09T09:34:30.832Z,74.40
2018-08-09T09:35:34.821Z,73.70
2018-08-09T09:36:38.877Z,73.80
2018-08-09T09:37:43.485Z,74.20
2018-08-09T09:38:47.521Z,74.30
2018-08-09T09:39:51.601Z,74.20
2018-08-09T09:40:55.629Z,73.70
2018-08-09T09:41:59.695Z,74.10
2018-08-09T09:43:03.741Z,73.90
2018-08-09T09:44:08.087Z,73.10
2018-08-09T09:45:12.117Z,71.80
2018-08-09T09:46:16.165Z,71.70
2018-08-09T09:47:20.379Z,71.90
2018-08-09T09:48:24.386Z,72.50
2018-08-09T09:49:28.368Z,71.90
2018-08-09T09:51:42.772Z,72.20
2018-08-09T09:52:46.754Z,72.10
2018-08-09T09:53:50.793Z,71.90
2018-08-09T09:54:54.810Z,71.50
2018-08-09T09:55:58.932Z,70.90
2018-08-09T09:57:02.926Z,70.80
2018-08-09T09:58:06.970Z,70.70
2018-08-09T09:59:11.001Z,71.20
2018-08-09T10:00:20.506Z,71.20
2018-08-09T10:01:29.821Z,71.20
2018-08-09T10:02:33.978Z,71.10
2018-08-09T10:03:38.063Z,71.20
2018-08-09T10:04:42.029Z,70.80
2018-08-09T10:05:46.012Z,69.90
2018-08-09T10:06:50.282Z,70.10
2018-08-09T10:07:54.360Z,70.50
2018-08-09T10:09:00.068Z,70.40
2018-08-09T10:10:04.403Z,68.90
2018-08-09T10:11:08.417Z,69.20
2018-08-09T10:12:12.414Z,68.90
2018-08-09T10:13:16.458Z,69.10
2018-08-09T10:14:23.154Z,69.20
2018-08-09T10:15:27.154Z,69.00
2018-08-09T10:16:31.138Z,68.40
2018-08-09T10:17:35.256Z,68.40
2018-08-09T10:18:39.275Z,68.40
2018-08-09T10:19:43.360Z,68.70
2018-08-09T10:20:47.369Z,68.80
2018-08-09T10:21:51.472Z,68.60
2018-08-09T10:22:55.468Z,68.20
2018-08-09T10:23:59.458Z,68.00
2018-08-09T10:25:03.496Z,67.90
2018-08-09T10:26:07.521Z,68.20
2018-08-09T10:27:11.519Z,68.40
2018-08-09T10:28:15.511Z,67.40
2018-08-09T10:29:19.494Z,67.30
2018-08-09T10:30:23.580Z,67.30
2018-08-09T10:31:27.643Z,67.00
2018-08-09T10:32:31.613Z,66.70
2018-08-09T10:33:35.586Z,66.80
2018-08-09T10:34:39.590Z,66.80
2018-08-09T10:35:43.562Z,67.20
2018-08-09T10:36:47.611Z,66.40
2018-08-09T10:37:51.599Z,65.40
2018-08-09T10:38:55.603Z,65.20
2018-08-09T10:39:59.694Z,65.50
2018-08-09T10:41:03.701Z,65.60
2018-08-09T10:42:07.743Z,64.20
2018-08-09T10:43:11.980Z,64.00
2018-08-09T10:44:16.010Z,63.40
2018-08-09T10:45:20.064Z,62.90
2018-08-09T10:46:24.057Z,63.00
2018-08-09T10:47:28.077Z,63.40
2018-08-09T10:48:32.078Z,64.00
2018-08-09T10:49:36.095Z,64.20
2018-08-09T10:50:40.174Z,64.70
2018-08-09T10:51:44.156Z,64.00
2018-08-09T10:52:48.253Z,64.60
2018-08-09T10:53:52.235Z,63.70
2018-08-09T10:54:56.246Z,63.20
2018-08-09T10:56:07.089Z,62.80
2018-08-09T10:57:11.072Z,63.20
2018-08-09T10:58:15.076Z,62.40
2018-08-09T10:59:19.083Z,61.70
2018-08-09T11:00:23.097Z,62.20
2018-08-09T11:01:27.068Z,62.30
2018-08-09T11:02:31.090Z,61.80
2018-08-09T11:03:35.113Z,61.10
2018-08-09T11:04:39.095Z,61.40
2018-08-09T11:05:43.145Z,61.30
2018-08-09T11:06:47.123Z,61.40
2018-08-09T11:07:51.129Z,61.90
2018-08-09T11:08:55.152Z,62.00
2018-08-09T11:09:59.153Z,61.90
2018-08-09T11:11:18.588Z,62.20
2018-08-09T11:12:22.633Z,61.90
2018-08-09T11:13:26.674Z,61.00
2018-08-09T11:14:30.642Z,60.40
2018-08-09T11:15:34.638Z,59.80
2018-08-09T11:16:38.659Z,59.40
2018-08-09T11:17:42.760Z,59.60
2018-08-09T11:18:46.724Z,59.00
2018-08-09T11:19:50.740Z,58.60
2018-08-09T11:20:54.785Z,58.60
2018-08-09T11:21:58.789Z,58.30
2018-08-09T11:23:02.786Z,58.50
2018-08-09T11:24:06.794Z,58.80
2018-08-09T11:25:10.951Z,58.20
2018-08-09T11:26:15.001Z,58.10
2018-08-09T11:27:19.030Z,58.70
2018-08-09T11:28:23.038Z,58.40
2018-08-09T11:29:27.018Z,58.20
2018-08-09T11:30:31.026Z,58.70
2018-08-09T11:31:35.098Z,59.10
2018-08-09T11:32:39.104Z,58.70
2018-08-09T11:33:43.240Z,58.60
2018-08-09T11:34:47.266Z,58.70
2018-08-09T11:35:51.273Z,58.70
2018-08-09T11:36:55.293Z,59.00
2018-08-09T11:37:59.326Z,59.00
2018-08-09T11:39:05.074Z,59.00
2018-08-09T11:40:09.166Z,58.70
2018-08-09T11:41:13.185Z,58.70
2018-08-09T11:42:17.235Z,58.50
2018-08-09T11:43:21.279Z,58.80
2018-08-09T11:44:25.309Z,59.00
2018-08-09T11:45:29.468Z,58.70
2018-08-09T11:46:33.479Z,58.40
2018-08-09T11:47:37.484Z,57.80
2018-08-09T11:48:41.543Z,56.20
2018-08-09T11:49:45.542Z,56.20
2018-08-09T11:50:49.539Z,55.60
2018-08-09T11:51:53.540Z,55.20
2018-08-09T11:52:57.521Z,55.10
2018-08-09T11:54:01.611Z,55.70
2018-08-09T11:55:05.597Z,55.80
2018-08-09T11:56:09.600Z,55.60
2018-08-09T11:57:13.617Z,55.60
2018-08-09T11:58:17.562Z,55.90
2018-08-09T11:59:21.592Z,55.90
2018-08-09T12:00:25.622Z,55.60
2018-08-09T12:01:29.670Z,55.50
2018-08-09T12:02:33.681Z,55.50
2018-08-09T12:03:37.656Z,55.70
2018-08-09T12:04:41.636Z,55.70
2018-08-09T12:05:45.625Z,55.80
2018-08-09T12:06:49.627Z,56.00
2018-08-09T12:07:53.773Z,55.20
2018-08-09T12:08:57.787Z,54.20
2018-08-09T12:10:01.775Z,54.60
2018-08-09T12:11:05.837Z,53.80
2018-08-09T12:12:09.855Z,53.30
2018-08-09T12:13:13.885Z,53.20
2018-08-09T12:14:17.876Z,53.30
2018-08-09T12:15:21.876Z,53.60
2018-08-09T12:16:25.964Z,53.30
2018-08-09T12:17:30.175Z,52.90
2018-08-09T12:18:34.342Z,52.50
2018-08-09T12:19:38.329Z,52.10
2018-08-09T12:20:42.462Z,52.20
2018-08-09T12:21:46.447Z,52.90
2018-08-09T12:22:50.571Z,53.80
2018-08-09T12:23:54.592Z,53.60
2018-08-09T12:24:58.620Z,54.10
2018-08-09T12:26:02.760Z,53.80
2018-08-09T12:27:06.842Z,53.60
2018-08-09T12:28:10.853Z,53.40
2018-08-09T12:29:14.851Z,53.80
2018-08-09T12:30:18.927Z,50.90
2018-08-09T12:31:22.902Z,48.20
2018-08-09T12:32:26.915Z,47.80
2018-08-09T12:33:30.930Z,47.90
2018-08-09T12:34:34.986Z,48.00
2018-08-09T12:35:39.040Z,47.20
2018-08-09T12:36:43.045Z,47.60
2018-08-09T12:37:47.008Z,47.40
2018-08-09T12:38:51.203Z,47.10
2018-08-09T12:39:55.222Z,47.10
2018-08-09T12:40:59.229Z,47.50
2018-08-09T12:42:03.269Z,46.30
2018-08-09T12:43:07.455Z,46.40
2018-08-09T12:44:11.726Z,46.20
2018-08-09T12:45:15.771Z,46.00
2018-08-09T12:46:19.789Z,45.90
2018-08-09T12:47:23.817Z,46.20
2018-08-09T12:48:27.831Z,46.10
2018-08-09T12:49:31.874Z,45.90
2018-08-09T12:50:35.913Z,45.30
2018-08-09T12:51:39.980Z,45.60
2018-08-09T12:52:44.754Z,45.30
2018-08-09T12:53:48.834Z,45.80
2018-08-09T12:54:52.870Z,45.00
2018-08-09T12:55:56.893Z,44.90
2018-08-09T12:57:00.930Z,44.40
2018-08-09T12:58:04.972Z,44.40
2018-08-09T12:59:09.032Z,44.20
2018-08-09T13:00:15.404Z,44.30
2018-08-09T13:01:19.407Z,43.80
2018-08-09T13:02:24.226Z,43.70
2018-08-09T13:03:28.239Z,43.50
2018-08-09T13:04:33.253Z,43.00
2018-08-09T13:05:37.424Z,42.70
2018-08-09T13:06:41.430Z,42.60
2018-08-09T13:07:45.575Z,44.10
2018-08-09T13:08:49.577Z,46.00
2018-08-09T13:09:53.612Z,46.50
2018-08-09T13:10:57.672Z,45.70
2018-08-09T13:12:01.606Z,46.00
2018-08-09T13:13:05.631Z,45.50
2018-08-09T13:14:10.613Z,45.40
2018-08-09T13:15:14.623Z,45.50
2018-08-09T13:16:18.892Z,45.90
2018-08-09T13:17:23.342Z,45.80
2018-08-09T13:18:27.331Z,46.20
2018-08-09T13:19:31.369Z,45.70
2018-08-09T13:20:35.419Z,44.10
2018-08-09T13:21:39.431Z,42.90
2018-08-09T13:22:45.407Z,43.00
2018-08-09T13:23:49.413Z,43.30
2018-08-09T13:24:53.448Z,43.80
2018-08-09T13:25:57.429Z,44.20
2018-08-09T13:27:01.661Z,44.90
2018-08-09T13:28:05.682Z,45.00
2018-08-09T13:29:09.705Z,45.80
2018-08-09T13:30:14.196Z,46.30
2018-08-09T13:31:18.191Z,46.70
2018-08-09T13:32:22.219Z,47.20
2018-08-09T13:33:26.234Z,47.40
2018-08-09T13:34:30.260Z,47.40
2018-08-09T13:35:34.402Z,47.00
2018-08-09T13:36:38.405Z,46.90
2018-08-09T13:37:42.409Z,47.10
2018-08-09T13:38:46.424Z,47.20
2018-08-09T13:39:50.428Z,47.60
2018-08-09T13:40:54.435Z,47.00
2018-08-09T13:41:58.489Z,47.10
2018-08-09T13:43:02.474Z,46.60
2018-08-09T13:44:06.502Z,46.70
2018-08-09T13:45:13.126Z,46.40
2018-08-09T13:46:17.172Z,46.60
2018-08-09T13:47:21.256Z,46.00